Indianapolis International Airport
KIND : now visible

Airfield :











YOU CAN JOIN US ON...

 
LOGIN :

Register | Disclaimer

   EN    FR    IT 

 









Legend :    VFR   Marginal VFR   IFR   Intensive IFR   Very Intensive IFR
Visi :
Ceiling :
>= 8 km
>= 3000ft
5 to 8 km
1000 to 3000 ft
1500m to 5 km
500 to 1000 ft
800 to 1500m
200 to 500 ft
< 800m
< 200 ft
Symbols :   Thunderstorms  Fog  Heavy snow  Heavy precipitations  Wind > 20 kt







- Airport Elevation : 797 ft
- IATA code : IND


KIND - Indianapolis International

CURRENT METAR :
  • 260254Z 10010KT 10SM SCT047 BKN085 23/15 A2998 RMK AO2 SLP148 T02280150 50006

EXPIRED METARs :
  • 260154Z 08007KT 10SM BKN049 24/15 A2998 RMK AO2 SLP148 T02390150
  • 260054Z 10007KT 10SM FEW055 SCT140 BKN250 24/14 A2997 RMK AO2 SLP145 T02390144

TAF KIND
Valid from the 26 at 02:00 until the 27 at 06:00 UTC


260225Z 2602/2706 10008KT P6SM BKN050
FM260800 13007KT P6SM VCSH BKN050
FM261200 13007KT 6SM SHRA BR OVC011
FM261600 16009KT 4SM SHRA BR OVC007
No reported NOTAMs for that airfield.



MET'MAP, your aeronautical weather chart ! - Copyright ORBIFLY December 2007 - Disclaimer

ORBIFLY MET'MAP TEAM :

Programming & Development : Alexandra Zaïnal
Concept & Development : Baudouin d'Aumeries
Co-Development & Prog : Marc-Olivier Méhu
Technical & hardware support : Manuel Goepfert

Contact : metmap@orbifly.com




SOURCES & CREDITS :

   NOAA       Earth
Advisory